createdAt,value
2018-08-28T00:01:51.440Z,15.40
2018-08-28T00:04:20.459Z,15.30
2018-08-28T00:06:49.491Z,15.30
2018-08-28T00:09:18.490Z,15.30
2018-08-28T00:11:47.873Z,15.30
2018-08-28T00:14:16.950Z,15.30
2018-08-28T00:16:46.024Z,15.40
2018-08-28T00:19:15.219Z,15.30
2018-08-28T00:21:44.274Z,15.30
2018-08-28T00:24:13.499Z,15.20
2018-08-28T00:26:42.508Z,15.10
2018-08-28T00:29:11.550Z,14.90
2018-08-28T00:31:40.609Z,14.80
2018-08-28T00:34:09.660Z,14.80
2018-08-28T00:36:38.894Z,14.70
2018-08-28T00:39:07.923Z,14.70
2018-08-28T00:41:37.013Z,14.60
2018-08-28T00:44:06.439Z,14.60
2018-08-28T00:46:35.542Z,14.50
2018-08-28T00:49:04.584Z,14.50
2018-08-28T00:51:33.792Z,14.50
2018-08-28T00:54:03.103Z,14.50
2018-08-28T00:56:32.139Z,14.50
2018-08-28T00:59:01.217Z,14.40
2018-08-28T01:01:30.261Z,14.50
2018-08-28T01:03:59.264Z,14.40
2018-08-28T01:06:28.303Z,14.40
2018-08-28T01:08:57.316Z,14.40
2018-08-28T01:11:26.329Z,14.40
2018-08-28T01:13:55.323Z,14.40
2018-08-28T01:16:24.374Z,14.40
2018-08-28T01:18:53.493Z,14.40
2018-08-28T01:21:22.506Z,14.40
2018-08-28T01:23:51.551Z,14.30
2018-08-28T01:26:20.801Z,14.30
2018-08-28T01:28:49.827Z,14.20
2018-08-28T01:31:18.866Z,14.10
2018-08-28T01:33:48.088Z,14.10
2018-08-28T01:36:17.100Z,14.00
2018-08-28T01:38:46.394Z,13.90
2018-08-28T01:41:15.460Z,13.90
2018-08-28T01:43:44.521Z,13.90
2018-08-28T01:46:13.617Z,13.80
2018-08-28T01:48:42.647Z,13.70
2018-08-28T01:51:11.720Z,13.70
2018-08-28T01:53:40.775Z,13.70
2018-08-28T01:56:09.810Z,13.70
2018-08-28T01:58:38.823Z,13.80
2018-08-28T02:01:07.843Z,13.80
2018-08-28T02:03:36.866Z,13.70
2018-08-28T02:06:06.256Z,13.70
2018-08-28T02:08:35.254Z,13.60
2018-08-28T02:11:04.321Z,13.50
2018-08-28T02:13:33.334Z,13.50
2018-08-28T02:16:02.664Z,13.60
2018-08-28T02:18:31.712Z,13.60
2018-08-28T02:21:00.767Z,13.50
2018-08-28T02:23:29.828Z,13.50
2018-08-28T02:25:58.877Z,13.50
2018-08-28T02:28:27.919Z,13.40
2018-08-28T02:30:56.921Z,13.30
2018-08-28T02:33:26.112Z,13.20
2018-08-28T02:35:55.269Z,13.20
2018-08-28T02:38:24.294Z,13.30
2018-08-28T02:40:53.355Z,13.40
2018-08-28T02:43:22.365Z,13.50
2018-08-28T02:45:51.410Z,13.60
2018-08-28T02:48:20.470Z,13.60
2018-08-28T02:50:49.759Z,13.70
2018-08-28T02:53:18.738Z,13.80
2018-08-28T02:55:47.713Z,13.80
2018-08-28T02:58:16.742Z,13.90
2018-08-28T03:00:45.737Z,13.90
2018-08-28T03:03:14.785Z,14.00
2018-08-28T03:05:43.839Z,14.00
2018-08-28T03:08:13.018Z,14.00
2018-08-28T03:10:42.271Z,14.00
2018-08-28T03:13:11.301Z,13.90
2018-08-28T03:15:40.340Z,13.80
2018-08-28T03:18:09.884Z,13.80
2018-08-28T03:20:39.271Z,13.70
2018-08-28T03:23:08.383Z,13.70
2018-08-28T03:25:37.446Z,13.70
2018-08-28T03:28:06.508Z,13.70
2018-08-28T03:30:35.647Z,13.60
2018-08-28T03:33:04.697Z,13.50
2018-08-28T03:35:33.724Z,13.40
2018-08-28T03:38:02.750Z,13.30
2018-08-28T03:40:31.923Z,13.30
2018-08-28T03:43:00.965Z,13.30
2018-08-28T03:45:30.017Z,13.30
2018-08-28T03:47:59.495Z,13.30
2018-08-28T03:50:28.616Z,13.30
2018-08-28T03:52:57.641Z,13.30
2018-08-28T03:55:26.627Z,13.30
2018-08-28T03:57:55.828Z,13.30
2018-08-28T04:00:24.886Z,13.20
2018-08-28T04:02:53.931Z,13.20
2018-08-28T04:05:22.983Z,13.20
2018-08-28T04:07:52.002Z,13.10
2018-08-28T04:10:21.041Z,13.20
2018-08-28T04:12:50.080Z,13.10
2018-08-28T04:15:19.080Z,13.10
2018-08-28T04:17:49.468Z,13.20
2018-08-28T04:20:20.054Z,13.20
2018-08-28T04:22:50.758Z,13.20
2018-08-28T04:25:19.799Z,13.30
2018-08-28T04:27:48.789Z,13.20
2018-08-28T04:30:17.809Z,13.20
2018-08-28T04:32:47.062Z,13.30
2018-08-28T04:35:16.104Z,13.20
2018-08-28T04:37:45.166Z,13.20
2018-08-28T04:40:14.214Z,13.20
2018-08-28T04:42:43.296Z,13.10
2018-08-28T04:45:12.315Z,13.10
2018-08-28T04:47:41.356Z,13.10
2018-08-28T04:50:10.400Z,13.10
2018-08-28T04:52:39.536Z,13.10
2018-08-28T04:55:08.907Z,13.10
2018-08-28T04:57:37.937Z,13.10
2018-08-28T05:00:07.651Z,13.10
2018-08-28T05:02:37.687Z,13.20
2018-08-28T05:05:08.768Z,13.20
2018-08-28T05:07:37.850Z,13.30
2018-08-28T05:10:07.272Z,13.40
2018-08-28T05:12:36.309Z,13.50
2018-08-28T05:15:05.537Z,13.60
2018-08-28T05:17:34.601Z,13.60
2018-08-28T05:20:03.979Z,13.70
2018-08-28T05:22:32.989Z,13.70
2018-08-28T05:25:02.183Z,13.70
2018-08-28T05:27:31.204Z,13.70
2018-08-28T05:30:00.304Z,13.70
2018-08-28T05:32:29.291Z,13.70
2018-08-28T05:34:58.558Z,13.80
2018-08-28T05:37:27.693Z,13.90
2018-08-28T05:39:56.718Z,13.90
2018-08-28T05:42:25.876Z,13.90
2018-08-28T05:44:54.887Z,13.90
2018-08-28T05:47:23.925Z,13.80
2018-08-28T05:49:53.126Z,13.70
2018-08-28T05:52:22.301Z,13.70
2018-08-28T05:54:51.520Z,13.50
2018-08-28T05:57:20.849Z,13.50
2018-08-28T05:59:50.072Z,13.60
2018-08-28T06:02:19.911Z,13.80
2018-08-28T06:04:48.942Z,14.00
2018-08-28T06:07:17.991Z,14.10
2018-08-28T06:09:46.988Z,14.20
2018-08-28T06:12:16.004Z,14.40
2018-08-28T06:14:45.085Z,14.50
2018-08-28T06:17:14.447Z,14.60
2018-08-28T06:19:43.732Z,14.70
2018-08-28T06:22:12.777Z,14.80
2018-08-28T06:24:41.818Z,14.90
2018-08-28T06:27:10.875Z,15.10
2018-08-28T06:29:41.402Z,15.20
2018-08-28T06:32:10.423Z,15.20
2018-08-28T06:34:39.414Z,15.30
2018-08-28T06:37:08.501Z,15.50
2018-08-28T06:39:37.526Z,15.60
2018-08-28T06:42:07.113Z,15.60
2018-08-28T06:44:36.618Z,15.50
2018-08-28T06:47:05.900Z,15.60
2018-08-28T06:49:35.007Z,15.60
2018-08-28T06:52:04.570Z,15.60
2018-08-28T06:54:33.602Z,15.70
2018-08-28T06:57:02.791Z,15.80
2018-08-28T06:59:31.994Z,15.90
2018-08-28T07:02:01.445Z,16.00
2018-08-28T07:04:30.621Z,16.10
2018-08-28T07:06:59.653Z,16.20
2018-08-28T07:09:28.881Z,16.30
2018-08-28T07:11:57.926Z,16.30
2018-08-28T07:14:27.087Z,16.40
2018-08-28T07:16:56.135Z,16.50
2018-08-28T07:19:25.182Z,16.60
2018-08-28T07:21:54.650Z,16.70
2018-08-28T07:24:23.686Z,16.80
2018-08-28T07:26:52.907Z,16.90
2018-08-28T07:29:22.266Z,16.90
2018-08-28T07:31:51.478Z,17.10
2018-08-28T07:34:20.676Z,17.20
2018-08-28T07:36:49.714Z,17.20
2018-08-28T07:39:18.945Z,17.30
2018-08-28T07:41:48.200Z,17.30
2018-08-28T07:44:17.490Z,17.40
2018-08-28T07:46:46.892Z,17.40
2018-08-28T07:49:15.971Z,17.60
2018-08-28T07:51:44.978Z,17.70
2018-08-28T07:54:14.590Z,17.90
2018-08-28T07:56:43.647Z,18.10
2018-08-28T07:59:12.744Z,18.20
2018-08-28T08:01:41.809Z,18.40
2018-08-28T08:04:10.868Z,18.50
2018-08-28T08:06:39.933Z,18.50
2018-08-28T08:09:10.556Z,18.50
2018-08-28T08:11:39.633Z,18.70
2018-08-28T08:14:08.649Z,18.90
2018-08-28T08:16:37.757Z,19.00
2018-08-28T08:19:07.127Z,19.10
2018-08-28T08:21:36.201Z,19.20
2018-08-28T08:24:05.390Z,19.10
2018-08-28T08:26:34.763Z,19.10
2018-08-28T08:29:04.185Z,19.30
2018-08-28T08:31:33.179Z,19.60
2018-08-28T08:34:02.738Z,19.80
2018-08-28T08:36:31.941Z,20.00
2018-08-28T08:39:00.957Z,20.20
2018-08-28T08:41:30.210Z,20.40
2018-08-28T08:43:59.367Z,20.50
2018-08-28T08:46:28.431Z,20.70
2018-08-28T08:48:57.534Z,20.60
2018-08-28T08:51:30.612Z,20.80
2018-08-28T08:53:59.670Z,21.00
2018-08-28T08:56:28.831Z,21.10
2018-08-28T08:58:57.881Z,21.00
2018-08-28T09:01:26.923Z,21.00
2018-08-28T09:03:56.016Z,21.20
2018-08-28T09:06:25.136Z,21.30
2018-08-28T09:08:54.196Z,21.20
2018-08-28T09:11:23.353Z,20.90
2018-08-28T09:13:52.431Z,21.10
2018-08-28T09:16:21.777Z,21.30
2018-08-28T09:18:50.874Z,21.40
2018-08-28T09:21:20.168Z,21.40
2018-08-28T09:23:49.397Z,21.30
2018-08-28T09:26:18.809Z,21.50
2018-08-28T09:28:47.834Z,21.60
2018-08-28T09:31:16.926Z,21.80
2018-08-28T09:33:46.098Z,22.00
2018-08-28T09:36:15.107Z,21.90
2018-08-28T09:38:44.169Z,21.70
2018-08-28T09:41:13.351Z,21.60
2018-08-28T09:43:42.438Z,21.60
2018-08-28T09:46:11.659Z,21.80
2018-08-28T09:48:40.951Z,22.10
2018-08-28T09:51:10.302Z,22.20
2018-08-28T09:53:39.461Z,22.50
2018-08-28T09:56:08.518Z,22.60
2018-08-28T09:58:38.091Z,22.90
2018-08-28T10:01:12.449Z,22.50
2018-08-28T10:03:41.440Z,22.30
2018-08-28T10:06:10.675Z,22.50
2018-08-28T10:08:39.696Z,22.80
2018-08-28T10:11:08.719Z,23.20
2018-08-28T10:13:38.288Z,23.40
2018-08-28T10:16:07.330Z,24.00
2018-08-28T10:18:36.615Z,24.30
2018-08-28T10:21:06.016Z,24.40
2018-08-28T10:23:35.205Z,24.00
2018-08-28T10:26:04.196Z,23.90
2018-08-28T10:28:33.203Z,24.00
2018-08-28T10:31:02.241Z,23.80
2018-08-28T10:33:31.312Z,23.40
2018-08-28T10:36:00.374Z,23.00
2018-08-28T10:38:29.751Z,23.00
2018-08-28T10:40:58.917Z,23.20
2018-08-28T10:43:27.988Z,23.60
2018-08-28T10:45:57.484Z,23.80
2018-08-28T10:48:26.845Z,23.70
2018-08-28T10:50:55.873Z,23.80
2018-08-28T10:53:25.595Z,24.20
2018-08-28T10:55:54.612Z,24.30
2018-08-28T10:58:23.625Z,24.30
2018-08-28T11:00:52.827Z,24.70
2018-08-28T11:03:22.103Z,24.50
2018-08-28T11:05:51.179Z,24.20
2018-08-28T11:08:20.484Z,24.50
2018-08-28T11:10:49.507Z,25.20
2018-08-28T11:13:18.520Z,27.30
2018-08-28T11:15:47.522Z,29.90
2018-08-28T11:18:17.087Z,32.00
2018-08-28T11:20:46.779Z,33.60
2018-08-28T11:23:16.361Z,34.40
2018-08-28T11:25:45.986Z,33.70
2018-08-28T11:28:15.623Z,33.00
2018-08-28T11:30:45.212Z,33.60
2018-08-28T11:33:15.294Z,33.90
2018-08-28T11:35:44.938Z,35.50
2018-08-28T11:38:15.667Z,36.50
2018-08-28T11:40:45.387Z,36.70
2018-08-28T11:43:15.282Z,36.50
2018-08-28T11:45:44.943Z,36.30
2018-08-28T11:48:14.570Z,35.70
2018-08-28T11:50:44.163Z,35.70
2018-08-28T11:53:13.717Z,35.70
2018-08-28T11:55:43.661Z,35.20
2018-08-28T11:58:13.515Z,34.60
2018-08-28T12:00:43.104Z,32.80
2018-08-28T12:03:12.677Z,32.00
2018-08-28T12:05:42.244Z,31.40
2018-08-28T12:08:11.865Z,30.40
2018-08-28T12:10:41.419Z,30.30
2018-08-28T12:13:11.175Z,30.60
2018-08-28T12:15:40.844Z,30.40
2018-08-28T12:18:10.789Z,30.40
2018-08-28T12:20:40.333Z,30.80
2018-08-28T12:23:09.925Z,30.90
2018-08-28T12:25:39.534Z,31.10
2018-08-28T12:28:09.302Z,31.70
2018-08-28T12:30:38.869Z,33.00
2018-08-28T12:33:08.869Z,33.50
2018-08-28T12:35:38.519Z,33.80
2018-08-28T12:38:08.136Z,34.70
2018-08-28T12:40:37.686Z,36.10
2018-08-28T12:43:07.762Z,37.60
2018-08-28T12:45:37.319Z,37.00
2018-08-28T12:48:06.910Z,36.00
2018-08-28T12:50:36.504Z,35.40
2018-08-28T12:53:06.479Z,35.10
2018-08-28T12:55:36.089Z,35.30
2018-08-28T12:58:06.436Z,36.00
2018-08-28T13:00:36.152Z,36.90
2018-08-28T13:03:05.855Z,37.50
2018-08-28T13:05:35.457Z,37.90
2018-08-28T13:08:05.031Z,38.50
2018-08-28T13:10:34.432Z,37.80
2018-08-28T13:13:04.191Z,36.80
2018-08-28T13:15:33.553Z,36.40
2018-08-28T13:18:03.199Z,37.90
2018-08-28T13:20:34.600Z,38.00
2018-08-28T13:23:04.250Z,37.80
2018-08-28T13:25:33.694Z,37.00
2018-08-28T13:28:03.118Z,36.90
2018-08-28T13:30:32.700Z,37.10
2018-08-28T13:33:02.006Z,37.70
2018-08-28T13:35:31.303Z,37.90
2018-08-28T13:38:00.911Z,37.70
2018-08-28T13:40:30.657Z,37.50
2018-08-28T13:43:00.000Z,38.40
2018-08-28T13:45:29.509Z,37.70
2018-08-28T13:47:59.105Z,38.20
2018-08-28T13:50:28.405Z,39.20
2018-08-28T13:52:57.736Z,39.80
2018-08-28T13:55:27.060Z,39.90
2018-08-28T13:57:56.297Z,40.00
2018-08-28T14:00:25.774Z,40.40
2018-08-28T14:02:55.093Z,40.50
2018-08-28T14:05:24.350Z,40.60
2018-08-28T14:07:53.635Z,40.40
2018-08-28T14:10:23.074Z,40.50
2018-08-28T14:12:52.475Z,39.80
2018-08-28T14:15:21.750Z,38.80
2018-08-28T14:17:51.223Z,38.00
2018-08-28T14:20:20.502Z,38.20
2018-08-28T14:22:50.027Z,38.80
2018-08-28T14:25:19.390Z,39.10
2018-08-28T14:27:49.362Z,38.70
2018-08-28T14:30:18.756Z,39.10
2018-08-28T14:32:48.105Z,40.20
2018-08-28T14:35:17.511Z,40.50
2018-08-28T14:37:46.822Z,41.20
2018-08-28T14:40:16.135Z,40.90
2018-08-28T14:42:45.584Z,39.90
2018-08-28T14:45:15.077Z,39.30
2018-08-28T14:47:44.641Z,38.70
2018-08-28T14:50:14.021Z,38.50
2018-08-28T14:52:43.483Z,38.20
2018-08-28T14:55:12.749Z,38.10
2018-08-28T14:57:42.040Z,38.50
2018-08-28T15:00:11.364Z,38.80
2018-08-28T15:02:41.053Z,39.40
2018-08-28T15:05:10.404Z,40.50
2018-08-28T15:07:39.911Z,39.80
2018-08-28T15:10:09.263Z,39.90
2018-08-28T15:12:38.766Z,40.10
2018-08-28T15:15:08.743Z,40.20
2018-08-28T15:17:38.326Z,40.30
2018-08-28T15:20:07.938Z,40.00
2018-08-28T15:22:39.191Z,38.90
2018-08-28T15:25:09.628Z,39.30
2018-08-28T15:27:38.964Z,39.70
2018-08-28T15:30:08.942Z,39.10
2018-08-28T15:32:38.252Z,38.60
2018-08-28T15:35:08.192Z,39.10
2018-08-28T15:37:37.481Z,39.60
2018-08-28T15:40:07.156Z,39.70
2018-08-28T15:42:36.448Z,39.80
2018-08-28T15:45:05.794Z,40.00
2018-08-28T15:47:35.191Z,40.10
2018-08-28T15:50:05.082Z,39.70
2018-08-28T15:52:34.392Z,39.30
2018-08-28T15:55:03.820Z,38.80
2018-08-28T15:57:33.141Z,38.70
2018-08-28T16:00:02.468Z,38.30
2018-08-28T16:02:31.888Z,38.50
2018-08-28T16:05:01.308Z,37.40
2018-08-28T16:07:31.091Z,37.00
2018-08-28T16:10:00.457Z,37.20
2018-08-28T16:12:29.950Z,37.60
2018-08-28T16:14:59.562Z,36.80
2018-08-28T16:17:29.164Z,37.20
2018-08-28T16:19:58.465Z,37.40
2018-08-28T16:22:39.180Z,37.70
2018-08-28T16:25:08.600Z,37.80
2018-08-28T16:27:38.199Z,37.70
2018-08-28T16:30:07.695Z,36.90
2018-08-28T16:32:37.358Z,36.90
2018-08-28T16:35:06.688Z,36.80
2018-08-28T16:37:36.265Z,37.10
2018-08-28T16:40:06.521Z,36.90
2018-08-28T16:42:36.842Z,36.90
2018-08-28T16:45:08.571Z,36.80
2018-08-28T16:47:38.151Z,36.70
2018-08-28T16:50:07.762Z,36.20
2018-08-28T16:52:37.556Z,35.90
2018-08-28T16:55:07.168Z,35.60
2018-08-28T16:57:36.812Z,35.30
2018-08-28T17:00:06.538Z,35.10
2018-08-28T17:02:36.550Z,34.70
2018-08-28T17:05:06.881Z,34.60
2018-08-28T17:07:36.585Z,34.20
2018-08-28T17:10:06.755Z,33.50
2018-08-28T17:12:36.829Z,32.30
2018-08-28T17:15:06.946Z,31.40
2018-08-28T17:17:36.785Z,30.70
2018-08-28T17:20:07.047Z,30.20
2018-08-28T17:22:36.661Z,29.50
2018-08-28T17:25:06.506Z,28.90
2018-08-28T17:27:36.152Z,28.50
2018-08-28T17:30:06.241Z,28.00
2018-08-28T17:32:35.891Z,27.50
2018-08-28T17:35:05.499Z,27.20
2018-08-28T17:37:34.564Z,26.90
2018-08-28T17:40:03.644Z,26.50
2018-08-28T17:42:32.689Z,26.30
2018-08-28T17:45:02.007Z,26.20
2018-08-28T17:47:31.073Z,26.00
2018-08-28T17:50:00.061Z,25.90
2018-08-28T17:52:29.100Z,25.70
2018-08-28T17:54:58.190Z,25.50
2018-08-28T17:57:27.252Z,25.30
2018-08-28T17:59:56.492Z,25.10
2018-08-28T18:02:25.710Z,24.90
2018-08-28T18:04:54.923Z,24.80
2018-08-28T18:07:24.002Z,24.60
2018-08-28T18:09:53.427Z,24.40
2018-08-28T18:12:22.726Z,24.20
2018-08-28T18:14:52.894Z,24.00
2018-08-28T18:17:22.641Z,23.90
2018-08-28T18:19:52.223Z,23.70
2018-08-28T18:22:21.335Z,23.50
2018-08-28T18:24:50.902Z,23.40
2018-08-28T18:27:20.449Z,23.20
2018-08-28T18:29:50.039Z,23.00
2018-08-28T18:32:19.045Z,22.80
2018-08-28T18:34:48.058Z,22.70
2018-08-28T18:37:19.477Z,22.60
2018-08-28T18:39:50.737Z,22.50
2018-08-28T18:42:20.329Z,22.40
2018-08-28T18:44:51.002Z,22.20
2018-08-28T18:47:20.446Z,22.00
2018-08-28T18:49:51.702Z,21.80
2018-08-28T18:52:21.736Z,21.70
2018-08-28T18:54:54.790Z,21.50
2018-08-28T18:57:25.287Z,21.40
2018-08-28T18:59:55.072Z,21.30
2018-08-28T19:02:26.940Z,21.20
2018-08-28T19:04:57.480Z,21.10
2018-08-28T19:07:26.807Z,21.00
2018-08-28T19:09:55.842Z,21.00
2018-08-28T19:12:25.408Z,20.90
2018-08-28T19:14:54.524Z,20.80
2018-08-28T19:17:23.655Z,20.80
2018-08-28T19:19:53.814Z,20.70
2018-08-28T19:22:23.544Z,20.60
2018-08-28T19:24:57.813Z,20.50
2018-08-28T19:27:29.625Z,20.40
2018-08-28T19:30:05.182Z,20.40
2018-08-28T19:32:40.538Z,20.30
2018-08-28T19:35:14.944Z,20.20
2018-08-28T19:40:29.099Z,20.00
2018-08-28T19:42:59.215Z,20.10
2018-08-28T19:45:32.922Z,20.00
2018-08-28T19:48:04.252Z,19.90
2018-08-28T19:50:34.840Z,19.90
2018-08-28T19:53:03.926Z,19.90
2018-08-28T19:55:32.998Z,19.80
2018-08-28T19:58:02.744Z,19.70
2018-08-28T20:00:31.987Z,19.60
2018-08-28T20:03:01.046Z,19.60
2018-08-28T20:05:30.150Z,19.60
2018-08-28T20:07:59.179Z,19.60
2018-08-28T20:10:28.187Z,19.50
2018-08-28T20:12:57.237Z,19.50
2018-08-28T20:15:26.277Z,19.30
2018-08-28T20:17:55.358Z,19.10
2018-08-28T20:20:24.502Z,19.00
2018-08-28T20:22:53.543Z,19.00
2018-08-28T20:25:22.611Z,19.00
2018-08-28T20:27:51.647Z,19.00
2018-08-28T20:30:20.680Z,19.00
2018-08-28T20:32:49.689Z,18.90
2018-08-28T20:35:18.718Z,18.90
2018-08-28T20:37:47.776Z,18.80
2018-08-28T20:40:16.821Z,18.70
2018-08-28T20:42:45.875Z,18.70
2018-08-28T20:45:15.001Z,18.80
2018-08-28T20:47:44.155Z,18.80
2018-08-28T20:50:13.286Z,18.80
2018-08-28T20:52:42.831Z,18.70
2018-08-28T20:55:12.636Z,18.70
2018-08-28T20:57:41.673Z,18.60
2018-08-28T21:00:11.006Z,18.60
2018-08-28T21:02:40.034Z,18.50
2018-08-28T21:05:09.112Z,18.50
2018-08-28T21:07:38.177Z,18.40
2018-08-28T21:10:07.552Z,18.40
2018-08-28T21:12:36.653Z,18.30
2018-08-28T21:15:05.910Z,18.20
2018-08-28T21:17:34.988Z,18.10
2018-08-28T21:20:04.478Z,18.00
2018-08-28T21:22:33.865Z,18.00
2018-08-28T21:25:03.240Z,18.00
2018-08-28T21:27:32.259Z,17.90
2018-08-28T21:30:01.308Z,17.90
2018-08-28T21:32:30.353Z,17.90
2018-08-28T21:34:59.538Z,17.90
2018-08-28T21:37:28.667Z,18.00
2018-08-28T21:39:57.700Z,17.90
2018-08-28T21:42:26.799Z,17.90
2018-08-28T21:44:56.058Z,17.90
2018-08-28T21:47:25.172Z,17.80
2018-08-28T21:49:54.601Z,17.80
2018-08-28T21:52:23.650Z,17.80
2018-08-28T21:54:52.773Z,17.80
2018-08-28T21:57:21.779Z,17.80
2018-08-28T21:59:51.314Z,17.70
2018-08-28T22:02:20.388Z,17.60
2018-08-28T22:04:49.427Z,17.60
2018-08-28T22:07:23.758Z,17.50
2018-08-28T22:09:52.784Z,17.50
2018-08-28T22:12:21.863Z,17.40
2018-08-28T22:14:50.939Z,17.30
2018-08-28T22:17:19.965Z,17.30
2018-08-28T22:19:49.006Z,17.30
2018-08-28T22:22:18.058Z,17.30
2018-08-28T22:24:47.116Z,17.30
2018-08-28T22:27:16.125Z,17.30
2018-08-28T22:29:45.530Z,17.30
2018-08-28T22:32:14.889Z,17.20
2018-08-28T22:34:43.928Z,17.20
2018-08-28T22:37:13.008Z,17.20
2018-08-28T22:39:42.313Z,17.20
2018-08-28T22:42:11.542Z,17.10
2018-08-28T22:44:40.591Z,17.10
2018-08-28T22:47:09.656Z,17.00
2018-08-28T22:49:38.729Z,17.00
2018-08-28T22:52:07.829Z,16.90
2018-08-28T22:54:37.217Z,16.80
2018-08-28T22:57:06.320Z,16.80
2018-08-28T22:59:35.403Z,16.80
2018-08-28T23:02:04.499Z,16.80
2018-08-28T23:04:33.561Z,16.80
2018-08-28T23:07:02.699Z,16.80
2018-08-28T23:09:31.762Z,16.80
2018-08-28T23:12:01.207Z,16.70
2018-08-28T23:14:30.257Z,16.70
2018-08-28T23:16:59.473Z,16.70
2018-08-28T23:19:28.499Z,16.60
2018-08-28T23:21:57.970Z,16.50
2018-08-28T23:24:26.983Z,16.50
2018-08-28T23:26:56.038Z,16.50
2018-08-28T23:29:25.037Z,16.50
2018-08-28T23:31:54.028Z,16.40
2018-08-28T23:34:23.071Z,16.40
2018-08-28T23:36:52.100Z,16.40
2018-08-28T23:39:21.091Z,16.40
2018-08-28T23:41:50.220Z,16.40
2018-08-28T23:44:19.351Z,16.40
2018-08-28T23:46:48.354Z,16.30
2018-08-28T23:49:17.441Z,16.40
2018-08-28T23:51:46.465Z,16.30
2018-08-28T23:54:15.532Z,16.30
2018-08-28T23:56:44.547Z,16.30
2018-08-28T23:59:13.602Z,16.20
